Airfield :
LOGIN :

Register | Disclaimer

   EN    FR    IT 

 










Legend :    VFR   Marginal VFR   IFR   Intensive IFR   Very Intensive IFR
Visi :
Ceiling :
>= 8 km
>= 3000ft
5 to 8 km
1000 to 3000 ft
1500m to 5 km
500 to 1000 ft
800 to 1500m
200 to 500 ft
< 800m
< 200 ft
Symbols :   Thunderstorms  Fog  Heavy snow  Heavy precipitations  Wind > 20 kt
SIGMETs :     Misc.  Thunderstorms  Icing  Turbulence  Mountain Waves  Volcanic Ashes







- Airport Elevation : 23 ft
- IATA code : XFW


EDHI - Hamburg Finkenwerder

CURRENT METAR :
  • 210520Z AUTO 10003KT 050V150 9999 // FEW100/// 19/09 Q1012

EXPIRED METARs :
  • 210450Z AUTO 10003KT 060V140 9999 // NCD 18/09 Q1012
  • 210420Z AUTO 09004KT 070V130 9999 // FEW099/// 17/08 Q1012
  • 210350Z AUTO 08004KT 9999 // SCT094/// 17/08 Q1012
  • 210320Z AUTO 09003KT 060V130 9999 // FEW093/// 17/08 Q1012
  • 210250Z AUTO 08004KT 9999 // FEW084/// SCT098/// 17/08 Q1012

Expired Forecast.
No reported NOTAMs for that airfield.



MET'MAP, your aeronautical weather chart ! - Copyright ORBIFLY December 2007 - Disclaimer

ORBIFLY MET'MAP TEAM :

Programming & Development : Alexandra Zaïnal
Concept & Development : Baudouin d'Aumeries
Co-Development & Prog : Marc-Olivier Méhu
Technical & hardware support : Manuel Goepfert

Contact : metmap@orbifly.com




SOURCES & CREDITS :

   NOAA